sensor_id;sensor_type;location;lat;lon;timestamp;P1;durP1;ratioP1;P2;durP2;ratioP2
74612;SDS011;63119;51.788;8.824;2023-05-10T00:00:43;16.33;;;10.13;;
74612;SDS011;63119;51.788;8.824;2023-05-10T00:03:08;14.90;;;9.97;;
74612;SDS011;63119;51.788;8.824;2023-05-10T00:05:33;16.80;;;10.27;;
74612;SDS011;63119;51.788;8.824;2023-05-10T00:07:59;17.42;;;10.10;;
74612;SDS011;63119;51.788;8.824;2023-05-10T00:10:25;17.60;;;10.45;;
74612;SDS011;63119;51.788;8.824;2023-05-10T00:12:50;18.77;;;11.05;;
74612;SDS011;63119;51.788;8.824;2023-05-10T00:15:16;16.17;;;10.17;;
74612;SDS011;63119;51.788;8.824;2023-05-10T00:17:41;16.13;;;9.83;;
74612;SDS011;63119;51.788;8.824;2023-05-10T00:20:06;20.40;;;10.27;;
74612;SDS011;63119;51.788;8.824;2023-05-10T00:22:32;17.88;;;10.93;;
74612;SDS011;63119;51.788;8.824;2023-05-10T00:24:57;17.23;;;10.43;;
74612;SDS011;63119;51.788;8.824;2023-05-10T00:27:23;14.95;;;9.07;;
74612;SDS011;63119;51.788;8.824;2023-05-10T00:29:48;15.97;;;10.07;;
74612;SDS011;63119;51.788;8.824;2023-05-10T00:32:14;16.08;;;10.23;;
74612;SDS011;63119;51.788;8.824;2023-05-10T00:34:39;15.43;;;9.83;;
74612;SDS011;63119;51.788;8.824;2023-05-10T00:37:04;13.85;;;8.93;;
74612;SDS011;63119;51.788;8.824;2023-05-10T00:39:30;15.85;;;9.55;;
74612;SDS011;63119;51.788;8.824;2023-05-10T00:41:55;13.10;;;8.70;;
74612;SDS011;63119;51.788;8.824;2023-05-10T00:44:21;14.27;;;9.83;;
74612;SDS011;63119;51.788;8.824;2023-05-10T00:46:46;15.50;;;10.20;;
74612;SDS011;63119;51.788;8.824;2023-05-10T00:49:12;13.27;;;9.05;;
74612;SDS011;63119;51.788;8.824;2023-05-10T00:51:37;15.47;;;9.27;;
74612;SDS011;63119;51.788;8.824;2023-05-10T00:54:03;16.63;;;10.43;;
74612;SDS011;63119;51.788;8.824;2023-05-10T00:56:28;17.37;;;9.53;;
74612;SDS011;63119;51.788;8.824;2023-05-10T00:58:54;15.70;;;9.82;;
74612;SDS011;63119;51.788;8.824;2023-05-10T01:01:20;14.55;;;9.35;;
74612;SDS011;63119;51.788;8.824;2023-05-10T01:03:46;15.63;;;9.77;;
74612;SDS011;63119;51.788;8.824;2023-05-10T01:06:11;16.85;;;9.52;;
74612;SDS011;63119;51.788;8.824;2023-05-10T01:08:37;18.08;;;9.77;;
74612;SDS011;63119;51.788;8.824;2023-05-10T01:11:03;17.35;;;9.40;;
74612;SDS011;63119;51.788;8.824;2023-05-10T01:13:37;15.57;;;9.73;;
74612;SDS011;63119;51.788;8.824;2023-05-10T01:16:04;16.50;;;9.38;;
74612;SDS011;63119;51.788;8.824;2023-05-10T01:18:31;15.70;;;9.32;;
74612;SDS011;63119;51.788;8.824;2023-05-10T01:21:06;15.85;;;9.40;;
74612;SDS011;63119;51.788;8.824;2023-05-10T01:24:09;14.30;;;8.65;;
74612;SDS011;63119;51.788;8.824;2023-05-10T01:32:27;15.10;;;9.30;;
74612;SDS011;63119;51.788;8.824;2023-05-10T01:35:00;13.05;;;7.47;;
74612;SDS011;63119;51.788;8.824;2023-05-10T01:37:36;10.90;;;7.10;;
74612;SDS011;63119;51.788;8.824;2023-05-10T01:40:19;11.65;;;8.02;;
74612;SDS011;63119;51.788;8.824;2023-05-10T01:42:55;12.70;;;8.32;;
74612;SDS011;63119;51.788;8.824;2023-05-10T01:45:42;13.88;;;7.75;;
74612;SDS011;63119;51.788;8.824;2023-05-10T01:48:24;10.35;;;7.60;;
74612;SDS011;63119;51.788;8.824;2023-05-10T01:50:52;11.63;;;7.65;;
74612;SDS011;63119;51.788;8.824;2023-05-10T01:53:19;11.02;;;7.88;;
74612;SDS011;63119;51.788;8.824;2023-05-10T01:55:46;13.70;;;8.10;;
74612;SDS011;63119;51.788;8.824;2023-05-10T01:58:15;13.93;;;7.78;;
74612;SDS011;63119;51.788;8.824;2023-05-10T02:00:45;15.07;;;8.45;;
74612;SDS011;63119;51.788;8.824;2023-05-10T02:03:12;14.05;;;8.45;;
74612;SDS011;63119;51.788;8.824;2023-05-10T02:05:39;13.95;;;7.65;;
74612;SDS011;63119;51.788;8.824;2023-05-10T02:08:06;15.30;;;7.95;;
74612;SDS011;63119;51.788;8.824;2023-05-10T02:10:34;10.35;;;6.25;;
74612;SDS011;63119;51.788;8.824;2023-05-10T02:13:00;6.13;;;4.25;;
74612;SDS011;63119;51.788;8.824;2023-05-10T02:15:27;6.07;;;3.35;;
74612;SDS011;63119;51.788;8.824;2023-05-10T02:17:55;5.05;;;3.47;;
74612;SDS011;63119;51.788;8.824;2023-05-10T02:20:22;6.65;;;3.40;;
74612;SDS011;63119;51.788;8.824;2023-05-10T02:22:50;6.70;;;3.97;;
74612;SDS011;63119;51.788;8.824;2023-05-10T02:25:19;6.13;;;3.83;;
74612;SDS011;63119;51.788;8.824;2023-05-10T02:27:46;7.25;;;4.20;;
74612;SDS011;63119;51.788;8.824;2023-05-10T02:30:13;6.65;;;4.35;;
74612;SDS011;63119;51.788;8.824;2023-05-10T02:32:39;6.78;;;4.68;;
74612;SDS011;63119;51.788;8.824;2023-05-10T02:35:06;7.25;;;4.55;;
74612;SDS011;63119;51.788;8.824;2023-05-10T02:37:33;8.15;;;4.93;;
74612;SDS011;63119;51.788;8.824;2023-05-10T02:40:00;7.95;;;5.28;;
74612;SDS011;63119;51.788;8.824;2023-05-10T02:42:28;7.85;;;4.65;;
74612;SDS011;63119;51.788;8.824;2023-05-10T02:47:24;8.60;;;5.38;;
74612;SDS011;63119;51.788;8.824;2023-05-10T02:49:49;9.70;;;5.80;;
74612;SDS011;63119;51.788;8.824;2023-05-10T02:52:16;10.53;;;6.00;;
74612;SDS011;63119;51.788;8.824;2023-05-10T02:54:48;9.45;;;5.95;;
74612;SDS011;63119;51.788;8.824;2023-05-10T02:57:17;10.93;;;6.38;;
74612;SDS011;63119;51.788;8.824;2023-05-10T02:59:52;9.15;;;5.95;;
74612;SDS011;63119;51.788;8.824;2023-05-10T03:02:17;9.85;;;6.22;;
74612;SDS011;63119;51.788;8.824;2023-05-10T03:04:43;8.63;;;6.23;;
74612;SDS011;63119;51.788;8.824;2023-05-10T03:07:08;9.95;;;6.13;;
74612;SDS011;63119;51.788;8.824;2023-05-10T03:09:34;9.18;;;6.13;;
74612;SDS011;63119;51.788;8.824;2023-05-10T03:12:21;10.68;;;6.00;;
74612;SDS011;63119;51.788;8.824;2023-05-10T03:17:46;8.63;;;6.10;;
74612;SDS011;63119;51.788;8.824;2023-05-10T03:20:20;8.52;;;5.03;;
74612;SDS011;63119;51.788;8.824;2023-05-10T03:22:55;8.85;;;5.93;;
74612;SDS011;63119;51.788;8.824;2023-05-10T03:25:25;7.93;;;4.70;;
74612;SDS011;63119;51.788;8.824;2023-05-10T03:27:51;7.07;;;5.10;;
74612;SDS011;63119;51.788;8.824;2023-05-10T03:30:17;7.88;;;4.93;;
74612;SDS011;63119;51.788;8.824;2023-05-10T03:32:44;8.18;;;5.28;;
74612;SDS011;63119;51.788;8.824;2023-05-10T03:35:10;7.28;;;5.18;;
74612;SDS011;63119;51.788;8.824;2023-05-10T03:40:03;8.03;;;5.23;;
74612;SDS011;63119;51.788;8.824;2023-05-10T03:42:29;9.80;;;5.90;;
74612;SDS011;63119;51.788;8.824;2023-05-10T03:44:54;8.17;;;5.53;;
74612;SDS011;63119;51.788;8.824;2023-05-10T03:47:19;7.82;;;5.70;;
74612;SDS011;63119;51.788;8.824;2023-05-10T03:49:45;8.17;;;5.53;;
74612;SDS011;63119;51.788;8.824;2023-05-10T03:52:10;8.70;;;5.43;;
74612;SDS011;63119;51.788;8.824;2023-05-10T03:54:35;9.38;;;5.55;;
74612;SDS011;63119;51.788;8.824;2023-05-10T03:57:01;7.73;;;5.20;;
74612;SDS011;63119;51.788;8.824;2023-05-10T03:59:26;8.13;;;5.70;;
74612;SDS011;63119;51.788;8.824;2023-05-10T04:01:51;8.18;;;5.20;;
74612;SDS011;63119;51.788;8.824;2023-05-10T04:04:16;8.33;;;5.70;;
74612;SDS011;63119;51.788;8.824;2023-05-10T04:06:43;6.68;;;5.10;;
74612;SDS011;63119;51.788;8.824;2023-05-10T04:09:08;8.45;;;5.53;;
74612;SDS011;63119;51.788;8.824;2023-05-10T04:11:34;8.10;;;5.13;;
74612;SDS011;63119;51.788;8.824;2023-05-10T04:13:59;7.63;;;5.20;;
74612;SDS011;63119;51.788;8.824;2023-05-10T04:16:24;6.13;;;4.70;;
74612;SDS011;63119;51.788;8.824;2023-05-10T04:18:49;5.05;;;3.78;;
74612;SDS011;63119;51.788;8.824;2023-05-10T04:21:15;7.63;;;4.50;;
74612;SDS011;63119;51.788;8.824;2023-05-10T04:23:40;4.68;;;3.03;;
74612;SDS011;63119;51.788;8.824;2023-05-10T04:26:06;4.57;;;2.90;;
74612;SDS011;63119;51.788;8.824;2023-05-10T04:28:31;4.60;;;2.80;;
74612;SDS011;63119;51.788;8.824;2023-05-10T04:31:00;3.57;;;2.63;;
74612;SDS011;63119;51.788;8.824;2023-05-10T04:33:31;3.47;;;2.70;;
74612;SDS011;63119;51.788;8.824;2023-05-10T04:35:57;4.40;;;2.58;;
74612;SDS011;63119;51.788;8.824;2023-05-10T04:38:22;5.53;;;3.30;;
74612;SDS011;63119;51.788;8.824;2023-05-10T04:40:47;4.95;;;2.95;;
74612;SDS011;63119;51.788;8.824;2023-05-10T04:43:13;4.53;;;3.43;;
74612;SDS011;63119;51.788;8.824;2023-05-10T04:45:38;4.50;;;3.17;;
74612;SDS011;63119;51.788;8.824;2023-05-10T04:48:03;4.30;;;2.87;;
74612;SDS011;63119;51.788;8.824;2023-05-10T04:50:29;2.72;;;2.00;;
74612;SDS011;63119;51.788;8.824;2023-05-10T04:52:54;3.60;;;1.90;;
74612;SDS011;63119;51.788;8.824;2023-05-10T04:55:20;3.60;;;1.90;;
74612;SDS011;63119;51.788;8.824;2023-05-10T04:57:45;3.53;;;1.80;;
74612;SDS011;63119;51.788;8.824;2023-05-10T05:00:10;2.72;;;1.90;;
74612;SDS011;63119;51.788;8.824;2023-05-10T05:02:36;2.40;;;1.60;;
74612;SDS011;63119;51.788;8.824;2023-05-10T05:05:01;2.97;;;2.10;;
74612;SDS011;63119;51.788;8.824;2023-05-10T05:07:26;3.33;;;1.77;;
74612;SDS011;63119;51.788;8.824;2023-05-10T05:09:52;3.20;;;1.70;;
74612;SDS011;63119;51.788;8.824;2023-05-10T05:12:17;2.80;;;1.60;;
74612;SDS011;63119;51.788;8.824;2023-05-10T05:14:42;2.50;;;1.47;;
74612;SDS011;63119;51.788;8.824;2023-05-10T05:17:08;3.00;;;1.40;;
74612;SDS011;63119;51.788;8.824;2023-05-10T05:19:33;2.73;;;1.50;;
74612;SDS011;63119;51.788;8.824;2023-05-10T05:21:58;2.30;;;1.43;;
74612;SDS011;63119;51.788;8.824;2023-05-10T05:24:24;3.00;;;1.63;;
74612;SDS011;63119;51.788;8.824;2023-05-10T05:26:49;1.77;;;1.20;;
74612;SDS011;63119;51.788;8.824;2023-05-10T05:29:14;2.40;;;1.30;;
74612;SDS011;63119;51.788;8.824;2023-05-10T05:31:39;2.10;;;1.40;;
74612;SDS011;63119;51.788;8.824;2023-05-10T05:34:05;3.23;;;1.50;;
74612;SDS011;63119;51.788;8.824;2023-05-10T05:36:30;3.37;;;1.50;;
74612;SDS011;63119;51.788;8.824;2023-05-10T05:38:56;2.45;;;1.45;;
74612;SDS011;63119;51.788;8.824;2023-05-10T05:41:22;3.60;;;1.42;;
74612;SDS011;63119;51.788;8.824;2023-05-10T05:43:48;3.15;;;1.67;;
74612;SDS011;63119;51.788;8.824;2023-05-10T05:46:13;2.63;;;2.00;;
74612;SDS011;63119;51.788;8.824;2023-05-10T05:48:39;3.47;;;2.00;;
74612;SDS011;63119;51.788;8.824;2023-05-10T05:51:04;2.83;;;1.80;;
74612;SDS011;63119;51.788;8.824;2023-05-10T05:53:30;2.10;;;1.40;;
74612;SDS011;63119;51.788;8.824;2023-05-10T05:55:55;2.63;;;1.60;;
74612;SDS011;63119;51.788;8.824;2023-05-10T05:58:22;2.58;;;1.83;;
74612;SDS011;63119;51.788;8.824;2023-05-10T06:00:49;2.95;;;1.80;;
74612;SDS011;63119;51.788;8.824;2023-05-10T06:03:15;3.03;;;2.08;;
74612;SDS011;63119;51.788;8.824;2023-05-10T06:05:42;3.65;;;2.30;;
74612;SDS011;63119;51.788;8.824;2023-05-10T06:08:07;4.05;;;2.38;;
74612;SDS011;63119;51.788;8.824;2023-05-10T06:10:32;4.07;;;2.43;;
74612;SDS011;63119;51.788;8.824;2023-05-10T06:12:58;4.97;;;2.50;;
74612;SDS011;63119;51.788;8.824;2023-05-10T06:15:23;4.13;;;2.50;;
74612;SDS011;63119;51.788;8.824;2023-05-10T06:17:48;3.30;;;2.10;;
74612;SDS011;63119;51.788;8.824;2023-05-10T06:20:16;4.38;;;2.42;;
74612;SDS011;63119;51.788;8.824;2023-05-10T06:22:42;3.53;;;2.27;;
74612;SDS011;63119;51.788;8.824;2023-05-10T06:25:07;4.95;;;2.67;;
74612;SDS011;63119;51.788;8.824;2023-05-10T06:27:33;4.15;;;2.50;;
74612;SDS011;63119;51.788;8.824;2023-05-10T06:29:58;5.13;;;2.63;;
74612;SDS011;63119;51.788;8.824;2023-05-10T06:32:24;4.10;;;2.47;;
74612;SDS011;63119;51.788;8.824;2023-05-10T06:34:49;6.53;;;2.43;;
74612;SDS011;63119;51.788;8.824;2023-05-10T06:37:14;4.57;;;2.00;;
74612;SDS011;63119;51.788;8.824;2023-05-10T06:39:40;4.07;;;1.80;;
74612;SDS011;63119;51.788;8.824;2023-05-10T06:42:05;3.77;;;2.37;;
74612;SDS011;63119;51.788;8.824;2023-05-10T06:44:30;3.90;;;2.30;;
74612;SDS011;63119;51.788;8.824;2023-05-10T06:46:55;3.30;;;1.70;;
74612;SDS011;63119;51.788;8.824;2023-05-10T06:49:21;3.33;;;2.30;;
74612;SDS011;63119;51.788;8.824;2023-05-10T06:51:46;4.00;;;2.35;;
74612;SDS011;63119;51.788;8.824;2023-05-10T06:54:12;5.63;;;1.90;;
74612;SDS011;63119;51.788;8.824;2023-05-10T06:56:37;5.17;;;2.10;;
74612;SDS011;63119;51.788;8.824;2023-05-10T06:59:02;4.00;;;2.30;;
74612;SDS011;63119;51.788;8.824;2023-05-10T07:01:28;4.20;;;2.37;;
74612;SDS011;63119;51.788;8.824;2023-05-10T07:03:53;5.30;;;2.20;;
74612;SDS011;63119;51.788;8.824;2023-05-10T07:06:18;4.47;;;2.30;;
74612;SDS011;63119;51.788;8.824;2023-05-10T07:08:44;3.60;;;1.83;;
74612;SDS011;63119;51.788;8.824;2023-05-10T07:11:09;5.55;;;2.00;;
74612;SDS011;63119;51.788;8.824;2023-05-10T07:13:35;6.35;;;2.15;;
74612;SDS011;63119;51.788;8.824;2023-05-10T07:16:01;5.60;;;2.60;;
74612;SDS011;63119;51.788;8.824;2023-05-10T07:18:27;4.47;;;2.47;;
74612;SDS011;63119;51.788;8.824;2023-05-10T07:20:52;3.65;;;1.92;;
74612;SDS011;63119;51.788;8.824;2023-05-10T07:23:18;4.47;;;2.00;;
74612;SDS011;63119;51.788;8.824;2023-05-10T07:25:45;3.83;;;1.90;;
74612;SDS011;63119;51.788;8.824;2023-05-10T07:28:14;3.95;;;2.28;;
74612;SDS011;63119;51.788;8.824;2023-05-10T07:30:41;3.92;;;2.03;;
74612;SDS011;63119;51.788;8.824;2023-05-10T07:33:07;6.28;;;2.60;;
74612;SDS011;63119;51.788;8.824;2023-05-10T07:35:34;5.40;;;2.38;;
74612;SDS011;63119;51.788;8.824;2023-05-10T07:38:00;4.90;;;2.60;;
74612;SDS011;63119;51.788;8.824;2023-05-10T07:40:25;8.43;;;3.20;;
74612;SDS011;63119;51.788;8.824;2023-05-10T07:42:51;5.67;;;3.13;;
74612;SDS011;63119;51.788;8.824;2023-05-10T07:45:16;6.47;;;2.88;;
74612;SDS011;63119;51.788;8.824;2023-05-10T07:47:42;5.95;;;3.22;;
74612;SDS011;63119;51.788;8.824;2023-05-10T07:50:07;7.73;;;3.13;;
74612;SDS011;63119;51.788;8.824;2023-05-10T07:52:33;6.38;;;3.22;;
74612;SDS011;63119;51.788;8.824;2023-05-10T07:54:58;9.27;;;4.10;;
74612;SDS011;63119;51.788;8.824;2023-05-10T07:57:23;8.50;;;4.93;;
74612;SDS011;63119;51.788;8.824;2023-05-10T07:59:48;8.70;;;4.87;;
74612;SDS011;63119;51.788;8.824;2023-05-10T08:02:14;6.97;;;4.10;;
74612;SDS011;63119;51.788;8.824;2023-05-10T08:04:39;10.23;;;4.70;;
74612;SDS011;63119;51.788;8.824;2023-05-10T08:07:04;10.00;;;5.27;;
74612;SDS011;63119;51.788;8.824;2023-05-10T08:09:29;8.57;;;4.50;;
74612;SDS011;63119;51.788;8.824;2023-05-10T08:11:54;7.53;;;4.80;;
74612;SDS011;63119;51.788;8.824;2023-05-10T08:14:20;8.73;;;5.40;;
74612;SDS011;63119;51.788;8.824;2023-05-10T08:16:45;8.10;;;5.50;;
74612;SDS011;63119;51.788;8.824;2023-05-10T08:19:10;16.03;;;6.47;;
74612;SDS011;63119;51.788;8.824;2023-05-10T08:21:35;21.87;;;10.87;;
74612;SDS011;63119;51.788;8.824;2023-05-10T08:24:01;12.83;;;7.40;;
74612;SDS011;63119;51.788;8.824;2023-05-10T08:26:26;10.40;;;6.13;;
74612;SDS011;63119;51.788;8.824;2023-05-10T08:28:51;9.53;;;5.63;;
74612;SDS011;63119;51.788;8.824;2023-05-10T08:31:17;9.97;;;6.10;;
74612;SDS011;63119;51.788;8.824;2023-05-10T08:33:43;11.85;;;6.13;;
74612;SDS011;63119;51.788;8.824;2023-05-10T08:36:08;14.88;;;5.88;;
74612;SDS011;63119;51.788;8.824;2023-05-10T08:38:33;9.53;;;5.73;;
74612;SDS011;63119;51.788;8.824;2023-05-10T08:40:58;9.20;;;5.00;;
74612;SDS011;63119;51.788;8.824;2023-05-10T08:43:27;6.60;;;3.67;;
74612;SDS011;63119;51.788;8.824;2023-05-10T08:45:54;11.98;;;6.20;;
74612;SDS011;63119;51.788;8.824;2023-05-10T08:48:20;13.05;;;7.28;;
74612;SDS011;63119;51.788;8.824;2023-05-10T08:53:13;13.37;;;6.93;;
74612;SDS011;63119;51.788;8.824;2023-05-10T08:55:41;14.68;;;7.55;;
74612;SDS011;63119;51.788;8.824;2023-05-10T08:58:07;12.93;;;7.88;;
74612;SDS011;63119;51.788;8.824;2023-05-10T09:00:34;14.25;;;6.88;;
74612;SDS011;63119;51.788;8.824;2023-05-10T09:03:00;14.60;;;7.57;;
74612;SDS011;63119;51.788;8.824;2023-05-10T09:05:26;15.20;;;8.00;;
74612;SDS011;63119;51.788;8.824;2023-05-10T09:07:51;16.50;;;8.50;;
74612;SDS011;63119;51.788;8.824;2023-05-10T09:10:17;13.40;;;8.13;;
74612;SDS011;63119;51.788;8.824;2023-05-10T09:12:44;16.30;;;8.93;;
74612;SDS011;63119;51.788;8.824;2023-05-10T09:15:10;16.52;;;8.30;;
74612;SDS011;63119;51.788;8.824;2023-05-10T09:17:36;15.68;;;8.70;;
74612;SDS011;63119;51.788;8.824;2023-05-10T09:20:03;17.35;;;8.75;;
74612;SDS011;63119;51.788;8.824;2023-05-10T09:22:29;16.85;;;8.57;;
74612;SDS011;63119;51.788;8.824;2023-05-10T09:25:05;22.55;;;10.55;;
74612;SDS011;63119;51.788;8.824;2023-05-10T09:27:31;18.10;;;9.73;;
74612;SDS011;63119;51.788;8.824;2023-05-10T09:29:56;16.20;;;8.53;;
74612;SDS011;63119;51.788;8.824;2023-05-10T09:32:22;21.75;;;10.70;;
74612;SDS011;63119;51.788;8.824;2023-05-10T09:35:08;17.80;;;8.93;;
74612;SDS011;63119;51.788;8.824;2023-05-10T09:37:34;17.60;;;9.15;;
74612;SDS011;63119;51.788;8.824;2023-05-10T09:39:59;17.48;;;9.18;;
74612;SDS011;63119;51.788;8.824;2023-05-10T09:42:25;17.47;;;9.43;;
74612;SDS011;63119;51.788;8.824;2023-05-10T09:44:50;21.57;;;11.10;;
74612;SDS011;63119;51.788;8.824;2023-05-10T09:47:18;19.30;;;10.27;;
74612;SDS011;63119;51.788;8.824;2023-05-10T09:49:44;20.58;;;10.07;;
74612;SDS011;63119;51.788;8.824;2023-05-10T09:52:14;18.30;;;10.18;;
74612;SDS011;63119;51.788;8.824;2023-05-10T09:54:42;17.83;;;10.13;;
74612;SDS011;63119;51.788;8.824;2023-05-10T09:57:20;17.60;;;10.05;;
74612;SDS011;63119;51.788;8.824;2023-05-10T09:59:46;19.08;;;10.00;;
74612;SDS011;63119;51.788;8.824;2023-05-10T10:02:12;19.60;;;10.75;;
74612;SDS011;63119;51.788;8.824;2023-05-10T10:04:41;19.77;;;10.93;;
74612;SDS011;63119;51.788;8.824;2023-05-10T10:07:07;20.23;;;10.85;;
74612;SDS011;63119;51.788;8.824;2023-05-10T10:09:33;19.55;;;10.40;;
74612;SDS011;63119;51.788;8.824;2023-05-10T10:12:00;18.73;;;10.68;;
74612;SDS011;63119;51.788;8.824;2023-05-10T10:14:26;18.67;;;10.05;;
74612;SDS011;63119;51.788;8.824;2023-05-10T10:16:52;14.20;;;8.75;;
74612;SDS011;63119;51.788;8.824;2023-05-10T10:19:18;18.60;;;9.70;;
74612;SDS011;63119;51.788;8.824;2023-05-10T10:21:45;15.77;;;8.93;;
74612;SDS011;63119;51.788;8.824;2023-05-10T10:24:10;14.87;;;9.77;;
74612;SDS011;63119;51.788;8.824;2023-05-10T10:26:35;16.03;;;9.40;;
74612;SDS011;63119;51.788;8.824;2023-05-10T10:31:46;16.98;;;9.32;;
74612;SDS011;63119;51.788;8.824;2023-05-10T10:36:50;15.68;;;8.48;;
74612;SDS011;63119;51.788;8.824;2023-05-10T10:42:43;19.27;;;9.95;;
74612;SDS011;63119;51.788;8.824;2023-05-10T10:45:12;17.48;;;9.50;;
74612;SDS011;63119;51.788;8.824;2023-05-10T10:47:38;16.67;;;8.80;;
74612;SDS011;63119;51.788;8.824;2023-05-10T10:50:04;19.00;;;10.07;;
74612;SDS011;63119;51.788;8.824;2023-05-10T10:52:38;15.43;;;8.98;;
74612;SDS011;63119;51.788;8.824;2023-05-10T10:55:15;16.48;;;8.65;;
74612;SDS011;63119;51.788;8.824;2023-05-10T11:00:18;15.35;;;8.13;;
74612;SDS011;63119;51.788;8.824;2023-05-10T11:02:45;16.25;;;9.20;;
74612;SDS011;63119;51.788;8.824;2023-05-10T11:07:51;16.27;;;8.75;;
74612;SDS011;63119;51.788;8.824;2023-05-10T11:10:22;15.95;;;8.70;;
74612;SDS011;63119;51.788;8.824;2023-05-10T11:13:01;15.30;;;8.55;;
74612;SDS011;63119;51.788;8.824;2023-05-10T11:15:29;16.20;;;9.27;;
74612;SDS011;63119;51.788;8.824;2023-05-10T11:17:55;16.67;;;9.73;;
74612;SDS011;63119;51.788;8.824;2023-05-10T11:20:21;16.10;;;9.60;;
74612;SDS011;63119;51.788;8.824;2023-05-10T11:22:52;17.52;;;9.57;;
74612;SDS011;63119;51.788;8.824;2023-05-10T11:25:19;16.00;;;8.60;;
74612;SDS011;63119;51.788;8.824;2023-05-10T11:27:47;15.00;;;8.80;;
74612;SDS011;63119;51.788;8.824;2023-05-10T11:30:13;15.93;;;7.93;;
74612;SDS011;63119;51.788;8.824;2023-05-10T11:32:40;12.90;;;7.28;;
74612;SDS011;63119;51.788;8.824;2023-05-10T11:35:09;14.73;;;7.32;;
74612;SDS011;63119;51.788;8.824;2023-05-10T11:37:35;11.73;;;7.28;;
74612;SDS011;63119;51.788;8.824;2023-05-10T11:40:01;12.57;;;7.65;;
74612;SDS011;63119;51.788;8.824;2023-05-10T11:42:27;13.05;;;8.07;;
74612;SDS011;63119;51.788;8.824;2023-05-10T11:44:53;19.00;;;9.05;;
74612;SDS011;63119;51.788;8.824;2023-05-10T11:47:19;15.52;;;8.20;;
74612;SDS011;63119;51.788;8.824;2023-05-10T11:49:45;12.82;;;7.65;;
74612;SDS011;63119;51.788;8.824;2023-05-10T11:52:11;11.90;;;7.35;;
74612;SDS011;63119;51.788;8.824;2023-05-10T11:54:36;12.87;;;7.43;;
74612;SDS011;63119;51.788;8.824;2023-05-10T11:57:02;13.88;;;8.05;;
74612;SDS011;63119;51.788;8.824;2023-05-10T11:59:28;14.93;;;8.43;;
74612;SDS011;63119;51.788;8.824;2023-05-10T12:01:53;14.17;;;7.80;;
74612;SDS011;63119;51.788;8.824;2023-05-10T12:04:19;14.40;;;7.90;;
74612;SDS011;63119;51.788;8.824;2023-05-10T12:06:44;15.27;;;7.93;;
74612;SDS011;63119;51.788;8.824;2023-05-10T12:09:11;14.55;;;7.80;;
74612;SDS011;63119;51.788;8.824;2023-05-10T12:11:37;14.13;;;7.47;;
74612;SDS011;63119;51.788;8.824;2023-05-10T12:14:05;14.75;;;8.02;;
74612;SDS011;63119;51.788;8.824;2023-05-10T12:16:30;14.45;;;8.98;;
74612;SDS011;63119;51.788;8.824;2023-05-10T12:18:57;13.50;;;7.68;;
74612;SDS011;63119;51.788;8.824;2023-05-10T12:21:23;11.02;;;7.35;;
74612;SDS011;63119;51.788;8.824;2023-05-10T12:23:52;12.32;;;7.07;;
74612;SDS011;63119;51.788;8.824;2023-05-10T12:26:23;13.90;;;7.45;;
74612;SDS011;63119;51.788;8.824;2023-05-10T12:28:49;19.05;;;9.32;;
74612;SDS011;63119;51.788;8.824;2023-05-10T12:31:15;14.73;;;8.85;;
74612;SDS011;63119;51.788;8.824;2023-05-10T12:33:41;13.00;;;8.10;;
74612;SDS011;63119;51.788;8.824;2023-05-10T12:36:11;11.82;;;7.32;;
74612;SDS011;63119;51.788;8.824;2023-05-10T12:38:42;11.95;;;7.20;;
74612;SDS011;63119;51.788;8.824;2023-05-10T12:41:14;13.40;;;6.55;;
74612;SDS011;63119;51.788;8.824;2023-05-10T12:43:40;13.82;;;7.30;;
74612;SDS011;63119;51.788;8.824;2023-05-10T12:46:07;10.68;;;6.35;;
74612;SDS011;63119;51.788;8.824;2023-05-10T12:48:34;10.15;;;5.70;;
74612;SDS011;63119;51.788;8.824;2023-05-10T12:51:00;8.20;;;4.57;;
74612;SDS011;63119;51.788;8.824;2023-05-10T12:53:26;8.63;;;5.00;;
74612;SDS011;63119;51.788;8.824;2023-05-10T12:55:51;6.97;;;3.80;;
74612;SDS011;63119;51.788;8.824;2023-05-10T12:58:17;6.50;;;4.03;;
74612;SDS011;63119;51.788;8.824;2023-05-10T13:00:42;8.27;;;4.13;;
74612;SDS011;63119;51.788;8.824;2023-05-10T13:03:08;6.68;;;3.40;;
74612;SDS011;63119;51.788;8.824;2023-05-10T13:05:34;7.22;;;3.80;;
74612;SDS011;63119;51.788;8.824;2023-05-10T13:07:59;6.73;;;4.00;;
74612;SDS011;63119;51.788;8.824;2023-05-10T13:10:24;6.20;;;3.40;;
74612;SDS011;63119;51.788;8.824;2023-05-10T13:12:50;6.22;;;3.55;;
74612;SDS011;63119;51.788;8.824;2023-05-10T13:15:15;6.65;;;3.65;;
74612;SDS011;63119;51.788;8.824;2023-05-10T13:17:40;8.43;;;4.13;;
74612;SDS011;63119;51.788;8.824;2023-05-10T13:20:07;6.88;;;3.83;;
74612;SDS011;63119;51.788;8.824;2023-05-10T13:22:34;6.85;;;3.78;;
74612;SDS011;63119;51.788;8.824;2023-05-10T13:24:59;7.50;;;4.40;;
74612;SDS011;63119;51.788;8.824;2023-05-10T13:27:24;7.33;;;4.67;;
74612;SDS011;63119;51.788;8.824;2023-05-10T13:29:49;10.93;;;4.97;;
74612;SDS011;63119;51.788;8.824;2023-05-10T13:32:15;10.67;;;4.73;;
74612;SDS011;63119;51.788;8.824;2023-05-10T13:34:40;9.00;;;4.90;;
74612;SDS011;63119;51.788;8.824;2023-05-10T13:37:05;9.85;;;4.93;;
74612;SDS011;63119;51.788;8.824;2023-05-10T13:39:31;7.77;;;4.70;;
74612;SDS011;63119;51.788;8.824;2023-05-10T13:41:59;8.55;;;4.82;;
74612;SDS011;63119;51.788;8.824;2023-05-10T13:44:24;6.77;;;5.00;;
74612;SDS011;63119;51.788;8.824;2023-05-10T13:46:49;8.63;;;4.93;;
74612;SDS011;63119;51.788;8.824;2023-05-10T13:49:15;6.70;;;2.88;;
74612;SDS011;63119;51.788;8.824;2023-05-10T13:51:40;5.03;;;2.63;;
74612;SDS011;63119;51.788;8.824;2023-05-10T13:54:05;7.20;;;3.70;;
74612;SDS011;63119;51.788;8.824;2023-05-10T13:56:31;7.67;;;3.53;;
74612;SDS011;63119;51.788;8.824;2023-05-10T13:58:56;6.20;;;3.07;;
74612;SDS011;63119;51.788;8.824;2023-05-10T14:01:23;4.55;;;2.90;;
74612;SDS011;63119;51.788;8.824;2023-05-10T14:03:48;5.75;;;3.17;;
74612;SDS011;63119;51.788;8.824;2023-05-10T14:06:13;5.88;;;3.58;;
74612;SDS011;63119;51.788;8.824;2023-05-10T14:08:39;6.90;;;3.38;;
74612;SDS011;63119;51.788;8.824;2023-05-10T14:11:05;8.93;;;3.80;;
74612;SDS011;63119;51.788;8.824;2023-05-10T14:13:30;5.80;;;3.97;;
74612;SDS011;63119;51.788;8.824;2023-05-10T14:15:55;4.97;;;2.97;;
74612;SDS011;63119;51.788;8.824;2023-05-10T14:18:20;8.40;;;3.43;;
74612;SDS011;63119;51.788;8.824;2023-05-10T14:20:46;5.30;;;2.97;;
74612;SDS011;63119;51.788;8.824;2023-05-10T14:23:11;8.73;;;4.05;;
74612;SDS011;63119;51.788;8.824;2023-05-10T14:25:37;9.73;;;5.88;;
74612;SDS011;63119;51.788;8.824;2023-05-10T14:28:04;15.20;;;7.28;;
74612;SDS011;63119;51.788;8.824;2023-05-10T14:30:30;14.27;;;6.72;;
74612;SDS011;63119;51.788;8.824;2023-05-10T14:32:56;12.32;;;6.80;;
74612;SDS011;63119;51.788;8.824;2023-05-10T14:35:23;12.63;;;6.93;;
74612;SDS011;63119;51.788;8.824;2023-05-10T14:37:48;15.03;;;6.90;;
74612;SDS011;63119;51.788;8.824;2023-05-10T14:40:13;12.17;;;7.33;;
74612;SDS011;63119;51.788;8.824;2023-05-10T14:42:40;16.67;;;7.90;;
74612;SDS011;63119;51.788;8.824;2023-05-10T14:45:05;18.10;;;11.50;;
74612;SDS011;63119;51.788;8.824;2023-05-10T14:47:30;18.70;;;9.80;;
74612;SDS011;63119;51.788;8.824;2023-05-10T14:49:56;15.10;;;7.77;;
74612;SDS011;63119;51.788;8.824;2023-05-10T14:52:21;16.43;;;8.27;;
74612;SDS011;63119;51.788;8.824;2023-05-10T14:54:46;14.60;;;8.13;;
74612;SDS011;63119;51.788;8.824;2023-05-10T14:57:12;14.25;;;7.28;;
74612;SDS011;63119;51.788;8.824;2023-05-10T14:59:37;12.02;;;6.40;;
74612;SDS011;63119;51.788;8.824;2023-05-10T15:02:03;12.20;;;6.10;;
74612;SDS011;63119;51.788;8.824;2023-05-10T15:04:29;10.88;;;6.05;;
74612;SDS011;63119;51.788;8.824;2023-05-10T15:06:54;11.50;;;5.53;;